Time,TemperatureF,DewpointF,PressureIn,WindDirection,WindDirectionDegrees,WindSpeedMPH,WindSpeedGustMPH,Humidity,HourlyPrecipIn,Conditions,Clouds,dailyrainin,SoftwareType,DateUTC
2013-08-22 00:05:00,71.6,71.6,30.02,West,264,5.0,7.0,100,0.00,,,0.00,Wunderground v.1.15,2013-08-22 04:05:00,
2013-08-22 00:10:00,71.6,71.6,30.02,West,263,5.0,5.0,100,0.00,,,0.00,Wunderground v.1.15,2013-08-22 04:10:00,
2013-08-22 00:15:00,71.6,71.6,30.02,West,264,5.0,5.0,100,0.00,,,0.00,Wunderground v.1.15,2013-08-22 04:15:00,
2013-08-22 00:25:00,72.0,72.0,30.01,West,260,6.0,8.0,100,0.00,,,0.00,Wunderground v.1.15,2013-08-22 04:25:00,
2013-08-22 00:30:00,72.1,72.1,30.01,WNW,284,7.0,10.0,100,0.00,,,0.00,Wunderground v.1.15,2013-08-22 04:30:00,
2013-08-22 00:40:00,72.1,72.1,30.01,West,268,7.0,8.0,100,0.00,,,0.00,Wunderground v.1.15,2013-08-22 04:40:00,
2013-08-22 00:50:00,72.1,72.1,30.01,West,268,8.0,8.0,100,0.00,,,0.00,Wunderground v.1.15,2013-08-22 04:50:00,
2013-08-22 00:55:00,72.3,72.3,30.01,West,277,7.0,8.0,100,0.00,,,0.00,Wunderground v.1.15,2013-08-22 04:55:00,
2013-08-22 01:05:00,72.1,72.1,30.01,West,275,7.0,7.0,100,0.00,,,0.00,Wunderground v.1.15,2013-08-22 05:05:00,
2013-08-22 01:10:00,72.1,72.1,30.01,West,270,7.0,8.0,100,0.00,,,0.00,Wunderground v.1.15,2013-08-22 05:10:00,
2013-08-22 01:20:00,72.1,72.1,30.01,West,275,5.0,6.0,100,0.00,,,0.00,Wunderground v.1.15,2013-08-22 05:20:00,
2013-08-22 01:25:00,72.1,72.1,30.01,West,266,6.0,6.0,100,0.00,,,0.00,Wunderground v.1.15,2013-08-22 05:25:00,
2013-08-22 01:35:00,72.1,72.1,30.02,WNW,284,8.0,8.0,100,0.00,,,0.00,Wunderground v.1.15,2013-08-22 05:35:00,
2013-08-22 01:40:00,72.1,72.1,30.02,NW,306,8.0,8.0,100,0.00,,,0.00,Wunderground v.1.15,2013-08-22 05:40:00,
2013-08-22 01:50:00,72.1,72.1,30.02,West,267,7.0,7.0,100,0.00,,,0.00,Wunderground v.1.15,2013-08-22 05:50:00,
2013-08-22 01:55:00,72.3,72.3,30.02,West,260,7.0,8.0,100,0.00,,,0.00,Wunderground v.1.15,2013-08-22 05:55:00,
2013-08-22 02:05:00,72.1,72.1,30.02,West,270,8.0,8.0,100,0.00,,,0.00,Wunderground v.1.15,2013-08-22 06:05:00,
2013-08-22 02:10:00,72.1,72.1,30.02,West,268,7.0,7.0,100,0.00,,,0.00,Wunderground v.1.15,2013-08-22 06:10:00,
2013-08-22 02:20:00,72.0,72.0,30.02,West,261,8.0,13.0,100,0.00,,,0.00,Wunderground v.1.15,2013-08-22 06:20:00,
2013-08-22 02:25:00,72.0,72.0,30.02,West,264,7.0,13.0,100,0.00,,,0.00,Wunderground v.1.15,2013-08-22 06:25:00,
2013-08-22 02:35:00,71.8,71.8,30.02,West,270,7.0,9.0,100,0.00,,,0.00,Wunderground v.1.15,2013-08-22 06:35:00,
2013-08-22 02:40:00,71.8,71.8,30.02,West,278,7.0,7.0,100,0.00,,,0.00,Wunderground v.1.15,2013-08-22 06:40:00,
2013-08-22 02:50:00,71.8,71.8,30.02,WSW,251,7.0,7.0,100,0.00,,,0.00,Wunderground v.1.15,2013-08-22 06:50:00,
2013-08-22 02:55:00,71.8,71.8,30.02,WNW,291,7.0,10.0,100,0.00,,,0.00,Wunderground v.1.15,2013-08-22 06:55:00,
2013-08-22 03:05:00,71.6,71.6,30.02,WNW,284,7.0,7.0,100,0.00,,,0.00,Wunderground v.1.15,2013-08-22 07:05:00,
2013-08-22 03:10:00,71.6,71.6,30.02,WNW,287,7.0,7.0,100,0.00,,,0.00,Wunderground v.1.15,2013-08-22 07:10:00,
2013-08-22 03:20:00,71.5,71.5,30.02,WSW,250,7.0,11.0,100,0.00,,,0.00,Wunderground v.1.15,2013-08-22 07:20:00,
2013-08-22 03:25:00,71.5,71.5,30.02,West,268,7.0,11.0,100,0.00,,,0.00,Wunderground v.1.15,2013-08-22 07:25:00,
2013-08-22 03:35:00,71.5,71.5,30.01,West,277,7.0,7.0,100,0.00,,,0.00,Wunderground v.1.15,2013-08-22 07:35:00,
2013-08-22 03:40:00,71.3,71.3,30.01,West,278,7.0,7.0,100,0.00,,,0.00,Wunderground v.1.15,2013-08-22 07:40:00,
2013-08-22 03:50:00,71.3,71.3,30.01,West,266,6.0,6.0,100,0.00,,,0.00,Wunderground v.1.15,2013-08-22 07:50:00,
2013-08-22 03:55:00,71.3,71.3,30.01,West,261,6.0,6.0,100,0.00,,,0.00,Wunderground v.1.15,2013-08-22 07:55:00,
2013-08-22 04:05:00,71.3,71.3,30.01,West,274,6.0,7.0,100,0.00,,,0.00,Wunderground v.1.15,2013-08-22 08:05:00,
2013-08-22 04:10:00,71.3,71.3,30.01,WNW,295,6.0,8.0,100,0.00,,,0.00,Wunderground v.1.15,2013-08-22 08:10:00,
2013-08-22 04:20:00,71.3,71.3,30.01,West,270,6.0,7.0,100,0.00,,,0.00,Wunderground v.1.15,2013-08-22 08:20:00,
2013-08-22 04:25:00,71.3,71.3,30.01,WSW,247,7.0,7.0,100,0.00,,,0.00,Wunderground v.1.15,2013-08-22 08:25:00,
2013-08-22 04:35:00,71.1,71.1,30.01,West,268,6.0,9.0,100,0.00,,,0.00,Wunderground v.1.15,2013-08-22 08:35:00,
2013-08-22 04:40:00,71.1,71.1,30.01,WSW,257,6.0,8.0,100,0.00,,,0.00,Wunderground v.1.15,2013-08-22 08:40:00,
2013-08-22 04:50:00,70.9,70.9,30.00,West,261,7.0,8.0,100,0.00,,,0.00,Wunderground v.1.15,2013-08-22 08:50:00,
2013-08-22 04:55:00,70.9,70.9,30.00,West,263,6.0,8.0,100,0.00,,,0.00,Wunderground v.1.15,2013-08-22 08:55:00,
2013-08-22 05:05:00,71.1,71.1,30.00,West,263,6.0,6.0,100,0.00,,,0.00,Wunderground v.1.15,2013-08-22 09:05:00,
2013-08-22 05:10:00,71.1,71.1,30.00,WSW,251,6.0,6.0,100,0.00,,,0.00,Wunderground v.1.15,2013-08-22 09:10:00,
2013-08-22 05:20:00,70.9,70.9,30.00,West,268,7.0,7.0,100,0.00,,,0.00,Wunderground v.1.15,2013-08-22 09:20:00,
2013-08-22 05:25:00,70.9,70.9,30.00,WSW,257,7.0,7.0,100,0.00,,,0.00,Wunderground v.1.15,2013-08-22 09:25:00,
2013-08-22 05:35:00,70.9,70.9,30.00,West,266,6.0,8.0,100,0.00,,,0.00,Wunderground v.1.15,2013-08-22 09:35:00,
2013-08-22 05:40:00,70.9,70.9,30.00,West,274,7.0,9.0,100,0.00,,,0.00,Wunderground v.1.15,2013-08-22 09:40:00,
2013-08-22 05:50:00,70.9,70.9,30.00,West,271,7.0,7.0,100,0.00,,,0.00,Wunderground v.1.15,2013-08-22 09:50:00,
2013-08-22 05:55:00,70.9,70.9,30.00,West,274,7.0,7.0,100,0.00,,,0.00,Wunderground v.1.15,2013-08-22 09:55:00,
2013-08-22 06:05:00,70.9,70.9,30.00,WSW,256,6.0,7.0,100,0.00,,,0.00,Wunderground v.1.15,2013-08-22 10:05:00,
2013-08-22 06:10:00,71.1,71.1,30.00,West,264,6.0,6.0,100,0.00,,,0.00,Wunderground v.1.15,2013-08-22 10:10:00,
2013-08-22 06:20:00,71.5,71.5,30.00,WSW,253,5.0,5.0,100,0.00,,,0.00,Wunderground v.1.15,2013-08-22 10:20:00,
2013-08-22 06:25:00,71.5,71.5,30.00,West,263,6.0,6.0,100,0.00,,,0.00,Wunderground v.1.15,2013-08-22 10:25:00,
2013-08-22 06:35:00,71.6,71.6,29.99,West,271,5.0,7.0,100,0.00,,,0.00,Wunderground v.1.15,2013-08-22 10:35:00,
2013-08-22 06:40:00,71.6,71.6,29.99,West,267,4.0,5.0,100,0.00,,,0.00,Wunderground v.1.15,2013-08-22 10:40:00,
2013-08-22 06:50:00,71.6,71.6,29.99,West,263,5.0,7.0,100,0.00,,,0.00,Wunderground v.1.15,2013-08-22 10:50:00,
2013-08-22 08:30:00,72.1,72.1,29.99,West,263,6.0,7.0,100,0.00,,,0.00,Wunderground v.1.15,2013-08-22 12:30:00,
2013-08-22 08:40:00,72.3,72.3,29.99,West,268,6.0,6.0,100,0.00,,,0.00,Wunderground v.1.15,2013-08-22 12:40:00,
2013-08-22 08:50:00,72.5,72.5,29.99,West,271,6.0,9.0,100,0.00,,,0.00,Wunderground v.1.15,2013-08-22 12:50:00,
2013-08-22 08:55:00,72.7,72.7,29.99,WSW,253,6.0,9.0,100,0.00,,,0.00,Wunderground v.1.15,2013-08-22 12:55:00,
2013-08-22 09:05:00,72.7,72.7,29.98,West,278,7.0,9.0,100,0.00,,,0.00,Wunderground v.1.15,2013-08-22 13:05:00,
2013-08-22 09:10:00,72.7,72.7,29.98,WNW,298,6.0,8.0,100,0.00,,,0.00,Wunderground v.1.15,2013-08-22 13:10:00,
2013-08-22 09:20:00,72.8,72.8,29.98,WSW,249,6.0,6.0,100,0.00,,,0.00,Wunderground v.1.15,2013-08-22 13:20:00,
2013-08-22 09:25:00,72.8,72.8,29.98,West,268,6.0,8.0,100,0.00,,,0.00,Wunderground v.1.15,2013-08-22 13:25:00,
2013-08-22 09:35:00,73.0,73.0,29.98,West,261,7.0,13.0,100,0.00,,,0.00,Wunderground v.1.15,2013-08-22 13:35:00,
2013-08-22 09:40:00,73.0,73.0,29.98,WSW,256,7.0,7.0,100,0.00,,,0.00,Wunderground v.1.15,2013-08-22 13:40:00,
2013-08-22 09:50:00,73.3,73.3,29.98,West,274,6.0,8.0,100,0.00,,,0.00,Wunderground v.1.15,2013-08-22 13:50:00,
2013-08-22 09:55:00,73.3,73.3,29.98,WNW,292,6.0,8.0,100,0.00,,,0.00,Wunderground v.1.15,2013-08-22 13:55:00,
2013-08-22 10:05:00,73.3,73.3,29.98,West,273,8.0,9.0,100,0.00,,,0.00,Wunderground v.1.15,2013-08-22 14:05:00,
2013-08-22 10:10:00,73.3,73.3,29.98,West,270,8.0,8.0,100,0.00,,,0.00,Wunderground v.1.15,2013-08-22 14:10:00,
2013-08-22 10:20:00,73.7,73.7,29.98,West,271,8.0,8.0,100,0.00,,,0.00,Wunderground v.1.15,2013-08-22 14:20:00,
2013-08-22 10:25:00,73.7,73.7,29.98,WSW,242,8.0,8.0,100,0.00,,,0.00,Wunderground v.1.15,2013-08-22 14:25:00,
2013-08-22 10:35:00,74.0,74.0,29.98,West,268,8.0,8.0,100,0.00,,,0.00,Wunderground v.1.15,2013-08-22 14:35:00,
2013-08-22 10:40:00,74.4,74.4,29.98,West,267,8.0,12.0,100,0.00,,,0.00,Wunderground v.1.15,2013-08-22 14:40:00,
2013-08-22 10:50:00,74.7,74.7,29.98,West,266,7.0,10.0,100,0.00,,,0.00,Wunderground v.1.15,2013-08-22 14:50:00,
2013-08-22 10:55:00,74.9,74.9,29.98,West,280,8.0,10.0,100,0.00,,,0.00,Wunderground v.1.15,2013-08-22 14:55:00,
2013-08-22 11:05:00,76.1,76.1,29.97,WSW,254,7.0,8.0,100,0.00,,,0.00,Wunderground v.1.15,2013-08-22 15:05:00,
2013-08-22 11:10:00,76.8,76.8,29.97,WSW,254,6.0,6.0,100,0.00,,,0.00,Wunderground v.1.15,2013-08-22 15:10:00,
2013-08-22 11:20:00,77.9,77.9,29.97,West,266,6.0,8.0,100,0.00,,,0.00,Wunderground v.1.15,2013-08-22 15:20:00,
2013-08-22 11:25:00,77.7,77.7,29.97,WNW,302,6.0,8.0,100,0.00,,,0.00,Wunderground v.1.15,2013-08-22 15:25:00,
2013-08-22 11:35:00,78.6,78.6,29.96,West,260,5.0,11.0,100,0.00,,,0.00,Wunderground v.1.15,2013-08-22 15:35:00,
2013-08-22 11:40:00,78.3,78.3,29.96,WSW,258,5.0,10.0,100,0.00,,,0.00,Wunderground v.1.15,2013-08-22 15:40:00,
2013-08-22 11:50:00,77.2,77.2,29.97,WSW,254,5.0,5.0,100,0.00,,,0.00,Wunderground v.1.15,2013-08-22 15:50:00,
2013-08-22 11:55:00,76.8,76.8,29.97,West,268,5.0,8.0,100,0.00,,,0.00,Wunderground v.1.15,2013-08-22 15:55:00,
2013-08-22 12:05:00,77.2,77.2,29.96,WNW,290,5.0,6.0,100,0.00,,,0.00,Wunderground v.1.15,2013-08-22 16:05:00,
2013-08-22 12:10:00,77.6,77.6,29.96,West,268,5.0,12.0,100,0.00,,,0.00,Wunderground v.1.15,2013-08-22 16:10:00,
2013-08-22 12:20:00,77.4,77.4,29.96,West,261,8.0,9.0,100,0.00,,,0.00,Wunderground v.1.15,2013-08-22 16:20:00,
2013-08-22 12:25:00,77.4,77.4,29.96,WSW,246,9.0,14.0,100,0.00,,,0.00,Wunderground v.1.15,2013-08-22 16:25:00,
2013-08-22 12:35:00,77.4,77.4,29.96,West,270,9.0,11.0,100,0.00,,,0.00,Wunderground v.1.15,2013-08-22 16:35:00,
2013-08-22 12:40:00,77.4,77.4,29.96,West,261,8.0,11.0,100,0.00,,,0.00,Wunderground v.1.15,2013-08-22 16:40:00,
2013-08-22 12:50:00,76.7,76.7,29.96,WNW,287,8.0,8.0,100,0.00,,,0.00,Wunderground v.1.15,2013-08-22 16:50:00,
2013-08-22 12:55:00,76.7,76.7,29.96,West,260,8.0,11.0,100,0.00,,,0.00,Wunderground v.1.15,2013-08-22 16:55:00,
2013-08-22 13:05:00,76.7,76.7,29.95,WNW,288,10.0,10.0,100,0.00,,,0.00,Wunderground v.1.15,2013-08-22 17:05:00,
2013-08-22 13:10:00,76.8,76.8,29.95,WSW,256,9.0,10.0,100,0.00,,,0.00,Wunderground v.1.15,2013-08-22 17:10:00,
2013-08-22 13:20:00,76.5,76.5,29.95,WSW,249,9.0,9.0,100,0.00,,,0.00,Wunderground v.1.15,2013-08-22 17:20:00,
2013-08-22 13:25:00,76.7,76.7,29.95,SW,236,7.0,10.0,100,0.00,,,0.00,Wunderground v.1.15,2013-08-22 17:25:00,
2013-08-22 13:35:00,76.5,76.5,29.95,WSW,250,8.0,8.0,100,0.00,,,0.00,Wunderground v.1.15,2013-08-22 17:35:00,
2013-08-22 13:40:00,76.1,-99.9,29.95,West,273,9.0,9.0,255,0.00,,,0.00,Wunderground v.1.15,2013-08-22 17:40:00,
2013-08-22 13:50:00,75.4,75.4,29.94,WNW,297,8.0,9.0,100,0.00,,,0.00,Wunderground v.1.15,2013-08-22 17:50:00,
2013-08-22 13:55:00,75.1,75.1,29.94,West,261,8.0,9.0,100,0.00,,,0.00,Wunderground v.1.15,2013-08-22 17:55:00,
2013-08-22 14:05:00,74.7,74.7,29.94,West,263,8.0,9.0,100,0.00,,,0.00,Wunderground v.1.15,2013-08-22 18:05:00,
2013-08-22 14:10:00,74.7,74.7,29.94,WNW,284,10.0,16.0,100,0.00,,,0.00,Wunderground v.1.15,2013-08-22 18:10:00,
2013-08-22 14:20:00,74.7,74.7,29.94,West,278,9.0,9.0,100,0.00,,,0.00,Wunderground v.1.15,2013-08-22 18:20:00,
2013-08-22 14:25:00,74.9,74.9,29.94,SW,227,8.0,9.0,100,0.00,,,0.00,Wunderground v.1.15,2013-08-22 18:25:00,
2013-08-22 14:35:00,75.4,75.4,29.93,West,278,7.0,10.0,100,0.00,,,0.00,Wunderground v.1.15,2013-08-22 18:35:00,
2013-08-22 14:40:00,75.6,75.6,29.93,West,273,8.0,8.0,100,0.00,,,0.00,Wunderground v.1.15,2013-08-22 18:40:00,
2013-08-22 14:50:00,75.6,75.6,29.92,WSW,237,8.0,8.0,100,0.00,,,0.00,Wunderground v.1.15,2013-08-22 18:50:00,
2013-08-22 14:55:00,75.6,75.6,29.92,West,260,8.0,8.0,100,0.00,,,0.00,Wunderground v.1.15,2013-08-22 18:55:00,
2013-08-22 15:05:00,75.4,75.4,29.91,West,281,7.0,7.0,100,0.00,,,0.00,Wunderground v.1.15,2013-08-22 19:05:00,
2013-08-22 15:10:00,75.3,75.3,29.91,WSW,249,7.0,7.0,100,0.00,,,0.00,Wunderground v.1.15,2013-08-22 19:10:00,
2013-08-22 15:20:00,75.1,75.1,29.91,West,273,7.0,8.0,100,0.00,,,0.00,Wunderground v.1.15,2013-08-22 19:20:00,
2013-08-22 15:25:00,74.6,74.6,29.91,West,264,8.0,8.0,100,0.00,,,0.00,Wunderground v.1.15,2013-08-22 19:25:00,
2013-08-22 15:35:00,74.2,74.2,29.91,WSW,242,7.0,8.0,100,0.00,,,0.00,Wunderground v.1.15,2013-08-22 19:35:00,
2013-08-22 15:40:00,73.9,73.9,29.91,West,273,7.0,11.0,100,0.00,,,0.00,Wunderground v.1.15,2013-08-22 19:40:00,
2013-08-22 15:50:00,73.7,73.7,29.91,West,260,6.0,6.0,100,0.00,,,0.00,Wunderground v.1.15,2013-08-22 19:50:00,
2013-08-22 15:55:00,73.5,73.5,29.91,West,281,5.0,7.0,100,0.00,,,0.00,Wunderground v.1.15,2013-08-22 19:55:00,
2013-08-22 16:05:00,73.3,73.3,29.90,WSW,251,6.0,7.0,100,0.00,,,0.00,Wunderground v.1.15,2013-08-22 20:05:00,
2013-08-22 16:10:00,73.2,73.2,29.90,WSW,250,6.0,6.0,100,0.00,,,0.00,Wunderground v.1.15,2013-08-22 20:10:00,
2013-08-22 16:20:00,73.0,73.0,29.90,SW,232,7.0,7.0,100,0.00,,,0.00,Wunderground v.1.15,2013-08-22 20:20:00,
2013-08-22 16:25:00,72.8,72.8,29.90,SW,230,6.0,7.0,100,0.00,,,0.00,Wunderground v.1.15,2013-08-22 20:25:00,
2013-08-22 16:35:00,72.8,72.8,29.90,SW,216,7.0,8.0,100,0.00,,,0.00,Wunderground v.1.15,2013-08-22 20:35:00,
2013-08-22 16:40:00,72.8,72.8,29.90,West,264,7.0,7.0,100,0.00,,,0.00,Wunderground v.1.15,2013-08-22 20:40:00,
2013-08-22 16:50:00,73.2,73.2,29.88,WSW,254,6.0,12.0,100,0.00,,,0.00,Wunderground v.1.15,2013-08-22 20:50:00,
2013-08-22 16:55:00,73.2,73.2,29.88,WSW,254,7.0,12.0,100,0.00,,,0.00,Wunderground v.1.15,2013-08-22 20:55:00,
2013-08-22 17:05:00,73.3,73.3,29.88,SSW,192,9.0,9.0,100,0.00,,,0.00,Wunderground v.1.15,2013-08-22 21:05:00,
2013-08-22 17:10:00,73.0,73.0,29.88,WSW,240,9.0,17.0,100,0.00,,,0.00,Wunderground v.1.15,2013-08-22 21:10:00,
2013-08-22 17:20:00,73.2,73.2,29.87,WSW,237,10.0,13.0,100,0.00,,,0.00,Wunderground v.1.15,2013-08-22 21:20:00,
2013-08-22 17:25:00,73.2,73.2,29.87,SW,225,8.0,13.0,100,0.00,,,0.00,Wunderground v.1.15,2013-08-22 21:25:00,
2013-08-22 17:35:00,72.7,72.7,29.87,WSW,256,8.0,8.0,100,0.00,,,0.00,Wunderground v.1.15,2013-08-22 21:35:00,
2013-08-22 17:40:00,72.7,72.7,29.87,West,263,7.0,7.0,100,0.00,,,0.00,Wunderground v.1.15,2013-08-22 21:40:00,
2013-08-22 17:50:00,72.7,72.7,29.86,SW,234,7.0,7.0,100,0.00,,,0.00,Wunderground v.1.15,2013-08-22 21:50:00,
2013-08-22 17:55:00,72.7,72.7,29.86,SSW,203,7.0,7.0,100,0.00,,,0.00,Wunderground v.1.15,2013-08-22 21:55:00,
2013-08-22 18:05:00,72.3,72.3,29.86,WSW,257,7.0,7.0,100,0.00,,,0.00,Wunderground v.1.15,2013-08-22 22:05:00,
2013-08-22 18:10:00,72.1,-99.9,29.86,WSW,249,7.0,11.0,255,0.00,,,0.00,Wunderground v.1.15,2013-08-22 22:10:00,
2013-08-22 18:20:00,72.1,72.1,29.85,WSW,240,8.0,8.0,100,0.00,,,0.00,Wunderground v.1.15,2013-08-22 22:20:00,
2013-08-22 18:25:00,72.1,72.1,29.85,WSW,237,8.0,8.0,100,0.00,,,0.00,Wunderground v.1.15,2013-08-22 22:25:00,
2013-08-22 18:35:00,72.1,72.1,29.85,West,273,8.0,8.0,100,0.00,,,0.00,Wunderground v.1.15,2013-08-22 22:35:00,
2013-08-22 18:40:00,72.0,72.0,29.85,West,263,8.0,12.0,100,0.00,,,0.00,Wunderground v.1.15,2013-08-22 22:40:00,
2013-08-22 18:50:00,72.0,72.0,29.85,West,271,9.0,9.0,100,0.00,,,0.00,Wunderground v.1.15,2013-08-22 22:50:00,
2013-08-22 18:55:00,71.8,71.8,29.85,WSW,242,9.0,9.0,100,0.00,,,0.00,Wunderground v.1.15,2013-08-22 22:55:00,
2013-08-22 19:05:00,71.8,71.8,29.86,West,270,9.0,9.0,100,0.00,,,0.00,Wunderground v.1.15,2013-08-22 23:05:00,
2013-08-22 19:10:00,71.8,71.8,29.86,West,266,10.0,11.0,100,0.00,,,0.00,Wunderground v.1.15,2013-08-22 23:10:00,
2013-08-22 19:20:00,71.8,71.8,29.87,SW,236,8.0,8.0,100,0.00,,,0.00,Wunderground v.1.15,2013-08-22 23:20:00,
2013-08-22 19:25:00,71.8,71.8,29.87,WSW,253,8.0,12.0,100,0.00,,,0.00,Wunderground v.1.15,2013-08-22 23:25:00,
2013-08-22 19:35:00,72.0,72.0,29.87,West,270,8.0,9.0,100,0.00,,,0.00,Wunderground v.1.15,2013-08-22 23:35:00,
2013-08-22 19:40:00,72.1,72.1,29.87,NW,304,8.0,10.0,100,0.00,,,0.00,Wunderground v.1.15,2013-08-22 23:40:00,
2013-08-22 19:50:00,72.1,72.1,29.87,WSW,256,7.0,13.0,100,0.00,,,0.00,Wunderground v.1.15,2013-08-22 23:50:00,
2013-08-22 19:55:00,72.1,72.1,29.87,WSW,240,8.0,13.0,100,0.00,,,0.00,Wunderground v.1.15,2013-08-22 23:55:00,
2013-08-22 20:05:00,72.1,72.1,29.87,WSW,256,9.0,9.0,100,0.00,,,0.00,Wunderground v.1.15,2013-08-23 00:05:00,
2013-08-22 20:10:00,72.3,72.3,29.87,WSW,254,9.0,14.0,100,0.00,,,0.00,Wunderground v.1.15,2013-08-23 00:10:00,
2013-08-22 20:20:00,72.3,72.3,29.87,West,278,11.0,11.0,100,0.00,,,0.00,Wunderground v.1.15,2013-08-23 00:20:00,
2013-08-22 20:25:00,72.3,72.3,29.87,West,277,10.0,11.0,100,0.00,,,0.00,Wunderground v.1.15,2013-08-23 00:25:00,
2013-08-22 20:35:00,72.5,72.5,29.88,SW,229,9.0,9.0,100,0.00,,,0.00,Wunderground v.1.15,2013-08-23 00:35:00,
2013-08-22 20:40:00,72.5,72.5,29.88,West,270,9.0,9.0,100,0.00,,,0.00,Wunderground v.1.15,2013-08-23 00:40:00,
2013-08-22 20:50:00,72.3,72.3,29.88,WSW,250,9.0,9.0,100,0.00,,,0.00,Wunderground v.1.15,2013-08-23 00:50:00,
2013-08-22 20:55:00,72.3,72.3,29.88,WNW,288,8.0,9.0,100,0.00,,,0.00,Wunderground v.1.15,2013-08-23 00:55:00,
2013-08-22 21:05:00,72.3,72.3,29.87,West,263,7.0,9.0,100,0.00,,,0.00,Wunderground v.1.15,2013-08-23 01:05:00,
2013-08-22 21:10:00,72.1,72.1,29.87,WSW,251,6.0,12.0,100,0.00,,,0.00,Wunderground v.1.15,2013-08-23 01:10:00,
2013-08-22 21:20:00,72.0,72.0,29.87,WSW,253,7.0,10.0,100,0.00,,,0.00,Wunderground v.1.15,2013-08-23 01:20:00,
2013-08-22 21:25:00,72.0,72.0,29.87,WSW,257,7.0,10.0,100,0.00,,,0.00,Wunderground v.1.15,2013-08-23 01:25:00,
2013-08-22 21:35:00,72.0,72.0,29.86,West,264,7.0,7.0,100,0.00,,,0.00,Wunderground v.1.15,2013-08-23 01:35:00,
2013-08-22 21:40:00,71.8,71.8,29.86,SW,234,7.0,7.0,100,0.00,,,0.00,Wunderground v.1.15,2013-08-23 01:40:00,
2013-08-22 21:50:00,71.8,71.8,29.86,WSW,258,8.0,8.0,100,0.00,,,0.00,Wunderground v.1.15,2013-08-23 01:50:00,
2013-08-22 21:55:00,72.0,72.0,29.86,West,260,8.0,8.0,100,0.00,,,0.00,Wunderground v.1.15,2013-08-23 01:55:00,
2013-08-22 22:05:00,72.0,72.0,29.85,West,273,8.0,8.0,100,0.00,,,0.00,Wunderground v.1.15,2013-08-23 02:05:00,
2013-08-22 22:10:00,72.1,72.1,29.85,West,268,8.0,12.0,100,0.00,,,0.00,Wunderground v.1.15,2013-08-23 02:10:00,
2013-08-22 22:20:00,72.1,72.1,29.85,WSW,257,9.0,9.0,100,0.00,,,0.00,Wunderground v.1.15,2013-08-23 02:20:00,
2013-08-22 22:25:00,72.1,72.1,29.85,WSW,246,10.0,11.0,100,0.00,,,0.00,Wunderground v.1.15,2013-08-23 02:25:00,
2013-08-22 22:35:00,72.0,72.0,29.84,West,264,8.0,10.0,100,0.00,,,0.00,Wunderground v.1.15,2013-08-23 02:35:00,
2013-08-22 22:40:00,72.0,72.0,29.84,WSW,251,8.0,10.0,100,0.00,,,0.00,Wunderground v.1.15,2013-08-23 02:40:00,
2013-08-22 22:50:00,72.0,72.0,29.84,West,274,8.0,11.0,100,0.00,,,0.00,Wunderground v.1.15,2013-08-23 02:50:00,
2013-08-22 22:55:00,72.0,72.0,29.84,WSW,253,9.0,12.0,100,0.00,,,0.00,Wunderground v.1.15,2013-08-23 02:55:00,
2013-08-22 23:05:00,72.0,72.0,29.84,WSW,251,8.0,11.0,100,0.00,,,0.00,Wunderground v.1.15,2013-08-23 03:05:00,
2013-08-22 23:10:00,72.0,72.0,29.84,West,266,8.0,8.0,100,0.00,,,0.00,Wunderground v.1.15,2013-08-23 03:10:00,
2013-08-22 23:20:00,72.0,72.0,29.84,WSW,256,9.0,9.0,100,0.00,,,0.00,Wunderground v.1.15,2013-08-23 03:20:00,
2013-08-22 23:25:00,72.0,72.0,29.84,WNW,285,10.0,10.0,100,0.00,,,0.00,Wunderground v.1.15,2013-08-23 03:25:00,
2013-08-22 23:35:00,72.1,72.1,29.83,West,264,10.0,10.0,100,0.00,,,0.00,Wunderground v.1.15,2013-08-23 03:35:00,
2013-08-22 23:40:00,72.1,72.1,29.83,WNW,284,9.0,14.0,100,0.00,,,0.00,Wunderground v.1.15,2013-08-23 03:40:00,
2013-08-22 23:50:00,72.0,72.0,29.83,WSW,254,10.0,17.0,100,0.00,,,0.00,Wunderground v.1.15,2013-08-23 03:50:00,
2013-08-22 23:55:00,72.0,72.0,29.83,West,278,9.0,17.0,100,0.00,,,0.00,Wunderground v.1.15,2013-08-23 03:55:00,